Agia Marina — SX5375 — position and weather

sailwx.info

Track history (hours):
 
Tides and Currents Weather Stations Pressure Air Temp Water Temp Dewpoint Dewpoint Depression Visibility Wind Speed Wind Dir Waves Ship Positions

Agia Marina

Last reported at 2016-May-06 03:33 UTC. Time now 2016-May-06 03:39 UTC.
Position N 37°27' E 025°31'.

Length 59 m; draft 2.5 m.

Type: Cargo ship. MMSI: 237042500.

Date/timePositionNaut miles runAvg speedWind from/ knotsBaromVisibWave heightAir tempDewpointWater temp
2016-May-06 03:33N 37°27' E 025°31'5 4.9
2016-May-06 02:33N 37°26' E 025°25'0 0.0
2016-May-06 01:33N 37°26' E 025°25'0 0.0
2016-May-06 00:33N 37°26' E 025°25'0 0.0
2016-May-05 23:33N 37°26' E 025°25'0 0.0
2016-May-05 22:33N 37°26' E 025°25'0 0.0
2016-May-05 21:33N 37°26' E 025°25'0 0.0
2016-May-05 20:33N 37°26' E 025°25'4 4.3
2016-May-05 19:33N 37°30' E 025°27'6 6.3
2016-May-05 18:33N 37°34' E 025°20'4 4.4
2016-May-05 17:33N 37°32' E 025°15'5 4.9
2016-May-05 16:33N 37°32' E 025°09'0 0.0
2016-May-05 15:33N 37°32' E 025°09'0 0.0
2016-May-05 14:33N 37°32' E 025°09'0 0.0
2016-May-05 13:33N 37°32' E 025°09'4 4.3
2016-May-05 12:33N 37°34' E 025°04'25 2.7
2016-May-05 03:26N 37°52' E 024°44'6 6.3
2016-May-05 02:32N 37°49' E 024°38'7 6.7
2016-May-05 01:33N 37°45' E 024°31'7 7.0
2016-May-05 00:33N 37°43' E 024°23'7 6.9
2016-May-04 23:33N 37°40' E 024°15'7 6.8
2016-May-04 22:33N 37°38' E 024°07'7 6.9
2016-May-04 21:33N 37°38' E 023°58'7 7.2
2016-May-04 20:33N 37°39' E 023°49'7 6.8
2016-May-04 19:33N 37°42' E 023°41'7 7.3
2016-May-04 18:33N 37°48' E 023°37'7 7.2
2016-May-04 17:33N 37°55' E 023°35'6 5.9
2016-May-04 16:33N 38°01' E 023°34'1 1.3
2016-May-04 15:33N 38°02' E 023°36'0 0.0
2016-May-04 14:33N 38°02' E 023°36'0 0.0
2016-May-04 13:34N 38°02' E 023°36'0 0.0
2016-May-04 12:33N 38°02' E 023°36'0 0.0
2016-May-04 11:33N 38°02' E 023°36'0 0.0
2016-May-04 10:33N 38°02' E 023°36'0 0.0
2016-May-04 09:33N 38°02' E 023°36'0 0.0
2016-May-04 08:33N 38°02' E 023°36'0 0.0
2016-May-04 07:33N 38°02' E 023°36'0 0.0
2016-May-04 06:33N 38°02' E 023°36'0 0.0
2016-May-04 05:33N 38°02' E 023°36'0 0.0
2016-May-04 04:33N 38°02' E 023°36'0 0.0
2016-May-04 03:33N 38°02' E 023°36'0 0.0
2016-May-04 02:33N 38°02' E 023°36'0 0.0
2016-May-04 01:33N 38°02' E 023°36'0 0.0
2016-May-04 00:33N 38°02' E 023°36'0 0.0
2016-May-03 23:33N 38°02' E 023°36'0 0.0
2016-May-03 22:33N 38°02' E 023°36'0 0.0
2016-May-03 21:33N 38°02' E 023°36'0 0.0
2016-May-03 20:33N 38°02' E 023°36'0 0.0
2016-May-03 19:33N 38°02' E 023°36'0 0.0
2016-May-03 18:33N 38°02' E 023°36'0 0.0
2016-May-03 17:33N 38°02' E 023°36'0 0.0
2016-May-03 16:33N 38°02' E 023°36'0 0.0
2016-May-03 15:33N 38°02' E 023°36'0 0.0
2016-May-03 14:33N 38°02' E 023°36'0 0.0
2016-May-03 13:34N 38°02' E 023°36'0 0.0
2016-May-03 12:33N 38°02' E 023°36'0 0.0
2016-May-03 11:33N 38°02' E 023°36'0 0.0
2016-May-03 10:33N 38°02' E 023°36'0 0.0
2016-May-03 09:33N 38°02' E 023°36'0 0.0
2016-May-03 08:33N 38°02' E 023°36'0 0.0
2016-May-03 07:33N 38°02' E 023°36'0 0.0
2016-May-03 06:33N 38°02' E 023°36'0 0.0
2016-May-03 05:33N 38°02' E 023°36'0 0.0
2016-May-03 04:33N 38°02' E 023°36'0 0.0
2016-May-03 03:34N 38°02' E 023°36'0 0.0
2016-May-03 02:33N 38°02' E 023°36'0 0.0
2016-May-03 01:33N 38°02' E 023°36'0 0.0
2016-May-03 00:33N 38°02' E 023°36'0 0.0
2016-May-02 23:33N 38°02' E 023°36'0 0.0
2016-May-02 22:33N 38°02' E 023°36'0 0.0
2016-May-02 21:33N 38°02' E 023°36'0 0.0
2016-May-02 20:33N 38°02' E 023°36'0 0.0
2016-May-02 19:34N 38°02' E 023°36'0 0.0
2016-May-02 18:34N 38°02' E 023°36'0 0.0
2016-May-02 17:33N 38°02' E 023°36'0 0.0
2016-May-02 16:33N 38°02' E 023°36'0 0.0
2016-May-02 15:34N 38°02' E 023°36'0 0.0
2016-May-02 14:33N 38°02' E 023°36'0 0.0
2016-May-02 13:33N 38°02' E 023°36'0 0.0
2016-May-02 12:33N 38°02' E 023°36'0 0.0
2016-May-02 11:33N 38°02' E 023°36'0 0.0
2016-May-02 10:33N 38°02' E 023°36'0 0.0
2016-May-02 09:33N 38°02' E 023°36'0 0.0
2016-May-02 08:33N 38°02' E 023°36'0 0.0
2016-May-02 07:33N 38°02' E 023°36'0 0.0
2016-May-02 06:33N 38°02' E 023°36'0 0.0
2016-May-02 05:33N 38°02' E 023°36'0 0.0
2016-May-02 04:33N 38°02' E 023°36'0 0.0
2016-May-02 03:33N 38°02' E 023°36'0 0.0
2016-May-02 02:33N 38°02' E 023°36'0 0.0
2016-May-02 01:33N 38°02' E 023°36'0 0.0
2016-May-02 00:33N 38°02' E 023°36'0 0.0
2016-May-01 23:33N 38°02' E 023°36'0 0.0
2016-May-01 22:33N 38°02' E 023°36'0 0.0
2016-May-01 21:33N 38°02' E 023°36'0 0.0
2016-May-01 20:33N 38°02' E 023°36'0 0.0
2016-May-01 19:33N 38°02' E 023°36'0 0.0
2016-May-01 18:33N 38°02' E 023°36'0 0.0
2016-May-01 17:33N 38°02' E 023°36'0 0.0
2016-May-01 16:33N 38°02' E 023°36'0 0.0
2016-May-01 15:33N 38°02' E 023°36'0 0.0
2016-May-01 14:33N 38°02' E 023°36'0 0.0
2016-May-01 13:33N 38°02' E 023°36'0 0.0
2016-May-01 12:34N 38°02' E 023°36'0 0.0
2016-May-01 11:33N 38°02' E 023°36'0 0.0
2016-May-01 10:33N 38°02' E 023°36'0 0.0
2016-May-01 09:33N 38°02' E 023°36'0 0.0
2016-May-01 08:34N 38°02' E 023°36'0 0.0
2016-May-01 07:33N 38°02' E 023°36'0 0.0
2016-May-01 06:33N 38°02' E 023°36'0 0.0
2016-May-01 05:33N 38°02' E 023°36'0 0.0
2016-May-01 04:33N 38°02' E 023°36'0 0.0
2016-May-01 03:33N 38°02' E 023°36'0 0.0
2016-May-01 02:33N 38°02' E 023°36'0 0.0
2016-May-01 01:33N 38°02' E 023°36'0 0.0
2016-May-01 00:33N 38°02' E 023°36'0 0.0
2016-Apr-30 23:33N 38°02' E 023°36'0 0.0
2016-Apr-30 22:33N 38°02' E 023°36'0 0.0
2016-Apr-30 21:33N 38°02' E 023°36'0 0.0
2016-Apr-30 20:33N 38°02' E 023°36'0 0.0
2016-Apr-30 19:33N 38°02' E 023°36'0 0.0
2016-Apr-30 18:33N 38°02' E 023°36'0 0.0
2016-Apr-30 17:33N 38°02' E 023°36'0 0.0
2016-Apr-30 16:33N 38°02' E 023°36'0 0.0
2016-Apr-30 15:33N 38°02' E 023°36'0 0.0
2016-Apr-30 14:33N 38°02' E 023°36'0 0.0
2016-Apr-30 13:33N 38°02' E 023°36'0 0.0
2016-Apr-30 12:34N 38°02' E 023°36'0 0.0
2016-Apr-30 11:33N 38°02' E 023°36'0 0.0
2016-Apr-30 10:33N 38°02' E 023°36'0 0.0
2016-Apr-30 09:33N 38°02' E 023°36'0 0.0
2016-Apr-30 08:33N 38°02' E 023°36'0 0.0
2016-Apr-30 07:33N 38°02' E 023°36'0 0.0
2016-Apr-30 06:33N 38°02' E 023°36'0 0.0
2016-Apr-30 05:33N 38°02' E 023°36'0 0.0
2016-Apr-30 04:33N 38°02' E 023°36'0 0.0
2016-Apr-30 03:33N 38°02' E 023°36'0 0.0
2016-Apr-30 02:33N 38°02' E 023°36'0 0.0
2016-Apr-30 01:33N 38°02' E 023°36'0 0.0
2016-Apr-30 00:33N 38°02' E 023°36'0 0.0
2016-Apr-29 23:34N 38°02' E 023°36'0 0.0
2016-Apr-29 22:33N 38°02' E 023°36'0 0.0
2016-Apr-29 21:33N 38°02' E 023°36'0 0.0
2016-Apr-29 20:33N 38°02' E 023°36'0 0.0
2016-Apr-29 19:33N 38°02' E 023°36'0 0.0
2016-Apr-29 18:33N 38°02' E 023°36'0 0.0
2016-Apr-29 17:33N 38°02' E 023°36'0 0.0
2016-Apr-29 16:33N 38°02' E 023°36'0 0.0
2016-Apr-29 15:33N 38°02' E 023°36'0 0.0
2016-Apr-29 14:34N 38°02' E 023°36'0 0.0
2016-Apr-29 13:34N 38°02' E 023°36'0 0.0
2016-Apr-29 12:33N 38°02' E 023°36'0 0.0
2016-Apr-29 11:33N 38°02' E 023°36'0 0.0
2016-Apr-29 10:33N 38°02' E 023°36'0 0.0
2016-Apr-29 09:33N 38°02' E 023°36'0 0.0
2016-Apr-29 08:33N 38°02' E 023°36'0 0.0
2016-Apr-29 07:33N 38°02' E 023°36'0 0.0
2016-Apr-29 06:33N 38°02' E 023°36'0 0.0
2016-Apr-29 05:33N 38°02' E 023°36'0 0.0
2016-Apr-29 04:33N 38°02' E 023°36'0 0.0
2016-Apr-29 03:33N 38°02' E 023°36'0 0.0
2016-Apr-29 02:33N 38°02' E 023°36'0 0.0
2016-Apr-29 01:33N 38°02' E 023°36'0 0.0
2016-Apr-29 00:33N 38°02' E 023°36'0 0.0
2016-Apr-28 23:33N 38°02' E 023°36'0 0.0
2016-Apr-28 22:33N 38°02' E 023°36'0 0.0
2016-Apr-28 21:33N 38°02' E 023°36'0 0.0
2016-Apr-28 20:33N 38°02' E 023°36'0 0.0
2016-Apr-28 19:33N 38°02' E 023°36'0 0.0
2016-Apr-28 18:33N 38°02' E 023°36'0 0.0
2016-Apr-28 17:33N 38°02' E 023°36'0 0.0
2016-Apr-28 16:33N 38°02' E 023°36'0 0.0
2016-Apr-28 15:33N 38°02' E 023°36'0 0.0
2016-Apr-28 14:33N 38°02' E 023°36'0 0.0
2016-Apr-28 13:33N 38°02' E 023°36'0 0.0
2016-Apr-28 12:33N 38°02' E 023°36'0 0.0
2016-Apr-28 11:34N 38°02' E 023°36'0 0.0
2016-Apr-28 10:33N 38°02' E 023°36'0 0.0
2016-Apr-28 09:33N 38°02' E 023°36'0 0.0
2016-Apr-28 08:33N 38°02' E 023°36'0 0.0
2016-Apr-28 07:33N 38°02' E 023°36'0 0.0
2016-Apr-28 06:34N 38°02' E 023°36'0 0.0
2016-Apr-28 05:33N 38°02' E 023°36'0 0.0
2016-Apr-28 04:33N 38°02' E 023°36'0 0.0
2016-Apr-28 03:33N 38°02' E 023°36'0 0.0
2016-Apr-28 02:33N 38°02' E 023°36'0 0.0
2016-Apr-28 01:33N 38°02' E 023°36'0 0.0
2016-Apr-28 00:33N 38°02' E 023°36'0 0.0
2016-Apr-27 23:33N 38°02' E 023°36'0 0.0
2016-Apr-27 22:34N 38°02' E 023°36'0 0.0
2016-Apr-27 21:33N 38°02' E 023°36'0 0.0
2016-Apr-27 20:33N 38°02' E 023°36'0 0.0
2016-Apr-27 19:34N 38°02' E 023°36'0 0.0
2016-Apr-27 18:33N 38°02' E 023°36'0 0.0
2016-Apr-27 17:33N 38°02' E 023°36'0 0.0
2016-Apr-27 16:33N 38°02' E 023°36'0 0.0
2016-Apr-27 15:33N 38°02' E 023°36'0 0.0
2016-Apr-27 14:33N 38°02' E 023°36'0 0.0
2016-Apr-27 13:33N 38°02' E 023°36'0 0.0
2016-Apr-27 12:33N 38°02' E 023°36'0 0.0
2016-Apr-27 11:33N 38°02' E 023°36'0 0.0
2016-Apr-27 10:33N 38°02' E 023°36'0 0.0
2016-Apr-27 09:33N 38°02' E 023°36'0 0.0
2016-Apr-27 08:33N 38°02' E 023°36'0 0.0
2016-Apr-27 07:33N 38°02' E 023°36'0 0.0
2016-Apr-27 06:34N 38°02' E 023°36'0 0.0
2016-Apr-27 05:33N 38°02' E 023°36'0 0.0
2016-Apr-27 04:33N 38°02' E 023°36'0 0.0
2016-Apr-27 03:33N 38°02' E 023°36'0 0.0
2016-Apr-27 02:34N 38°02' E 023°36'0 0.0
2016-Apr-27 01:33N 38°02' E 023°36'0 0.0
2016-Apr-27 00:33N 38°02' E 023°36'0 0.0
2016-Apr-26 23:33N 38°02' E 023°36'0 0.0
2016-Apr-26 22:33N 38°02' E 023°36'0 0.0
2016-Apr-26 21:34N 38°02' E 023°36'0 0.0
2016-Apr-26 20:33N 38°02' E 023°36'0 0.0
2016-Apr-26 19:33N 38°02' E 023°36'0 0.0
2016-Apr-26 18:34N 38°02' E 023°36'0 0.0
2016-Apr-26 17:34N 38°02' E 023°36'0 0.0
2016-Apr-26 16:33N 38°02' E 023°36'0 0.0
2016-Apr-26 15:33N 38°02' E 023°36'0 0.0
2016-Apr-26 14:33N 38°02' E 023°36'0 0.0
2016-Apr-26 13:33N 38°02' E 023°36'0 0.0
2016-Apr-26 12:33N 38°02' E 023°36'0 0.0
2016-Apr-26 11:33N 38°02' E 023°36'0 0.0
2016-Apr-26 10:33N 38°02' E 023°36'0 0.0
2016-Apr-26 09:34N 38°02' E 023°36'0 0.0
2016-Apr-26 08:33N 38°02' E 023°36'0 0.0
2016-Apr-26 07:33N 38°02' E 023°36'0 0.0
2016-Apr-26 06:33N 38°02' E 023°36'0 0.0
2016-Apr-26 05:33N 38°02' E 023°36'0 0.0
2016-Apr-26 04:34N 38°02' E 023°36'0 0.0
2016-Apr-26 03:33N 38°02' E 023°36'  
Track history (hours):
 
Tides and Currents Weather Stations Pressure Air Temp Water Temp Dewpoint Dewpoint Depression Visibility Wind Speed Wind Dir Waves Ship Positions

Agia Marina

Last reported at 2016-May-06 03:33 UTC. Time now 2016-May-06 03:39 UTC.
Position N 37°27' E 025°31'.

Length 59 m; draft 2.5 m.

Type: Cargo ship. MMSI: 237042500.

Date/timePositionNaut miles runAvg speedWind from/ knotsBaromVisibWave heightAir tempDewpointWater temp
2016-May-06 03:33N 37°27' E 025°31'5 4.9
2016-May-06 02:33N 37°26' E 025°25'0 0.0
2016-May-06 01:33N 37°26' E 025°25'0 0.0
2016-May-06 00:33N 37°26' E 025°25'0 0.0
2016-May-05 23:33N 37°26' E 025°25'0 0.0
2016-May-05 22:33N 37°26' E 025°25'0 0.0
2016-May-05 21:33N 37°26' E 025°25'0 0.0
2016-May-05 20:33N 37°26' E 025°25'4 4.3
2016-May-05 19:33N 37°30' E 025°27'6 6.3
2016-May-05 18:33N 37°34' E 025°20'4 4.4
2016-May-05 17:33N 37°32' E 025°15'5 4.9
2016-May-05 16:33N 37°32' E 025°09'0 0.0
2016-May-05 15:33N 37°32' E 025°09'0 0.0
2016-May-05 14:33N 37°32' E 025°09'0 0.0
2016-May-05 13:33N 37°32' E 025°09'4 4.3
2016-May-05 12:33N 37°34' E 025°04'25 2.7
2016-May-05 03:26N 37°52' E 024°44'6 6.3
2016-May-05 02:32N 37°49' E 024°38'7 6.7
2016-May-05 01:33N 37°45' E 024°31'7 7.0
2016-May-05 00:33N 37°43' E 024°23'7 6.9
2016-May-04 23:33N 37°40' E 024°15'7 6.8
2016-May-04 22:33N 37°38' E 024°07'7 6.9
2016-May-04 21:33N 37°38' E 023°58'7 7.2
2016-May-04 20:33N 37°39' E 023°49'7 6.8
2016-May-04 19:33N 37°42' E 023°41'7 7.3
2016-May-04 18:33N 37°48' E 023°37'7 7.2
2016-May-04 17:33N 37°55' E 023°35'6 5.9
2016-May-04 16:33N 38°01' E 023°34'1 1.3
2016-May-04 15:33N 38°02' E 023°36'0 0.0
2016-May-04 14:33N 38°02' E 023°36'0 0.0
2016-May-04 13:34N 38°02' E 023°36'0 0.0
2016-May-04 12:33N 38°02' E 023°36'0 0.0
2016-May-04 11:33N 38°02' E 023°36'0 0.0
2016-May-04 10:33N 38°02' E 023°36'0 0.0
2016-May-04 09:33N 38°02' E 023°36'0 0.0
2016-May-04 08:33N 38°02' E 023°36'0 0.0
2016-May-04 07:33N 38°02' E 023°36'0 0.0
2016-May-04 06:33N 38°02' E 023°36'0 0.0
2016-May-04 05:33N 38°02' E 023°36'0 0.0
2016-May-04 04:33N 38°02' E 023°36'0 0.0
2016-May-04 03:33N 38°02' E 023°36'0 0.0
2016-May-04 02:33N 38°02' E 023°36'0 0.0
2016-May-04 01:33N 38°02' E 023°36'0 0.0
2016-May-04 00:33N 38°02' E 023°36'0 0.0
2016-May-03 23:33N 38°02' E 023°36'0 0.0
2016-May-03 22:33N 38°02' E 023°36'0 0.0
2016-May-03 21:33N 38°02' E 023°36'0 0.0
2016-May-03 20:33N 38°02' E 023°36'0 0.0
2016-May-03 19:33N 38°02' E 023°36'0 0.0
2016-May-03 18:33N 38°02' E 023°36'0 0.0
2016-May-03 17:33N 38°02' E 023°36'0 0.0
2016-May-03 16:33N 38°02' E 023°36'0 0.0
2016-May-03 15:33N 38°02' E 023°36'0 0.0
2016-May-03 14:33N 38°02' E 023°36'0 0.0
2016-May-03 13:34N 38°02' E 023°36'0 0.0
2016-May-03 12:33N 38°02' E 023°36'0 0.0
2016-May-03 11:33N 38°02' E 023°36'0 0.0
2016-May-03 10:33N 38°02' E 023°36'0 0.0
2016-May-03 09:33N 38°02' E 023°36'0 0.0
2016-May-03 08:33N 38°02' E 023°36'0 0.0
2016-May-03 07:33N 38°02' E 023°36'0 0.0
2016-May-03 06:33N 38°02' E 023°36'0 0.0
2016-May-03 05:33N 38°02' E 023°36'0 0.0
2016-May-03 04:33N 38°02' E 023°36'0 0.0
2016-May-03 03:34N 38°02' E 023°36'0 0.0
2016-May-03 02:33N 38°02' E 023°36'0 0.0
2016-May-03 01:33N 38°02' E 023°36'0 0.0
2016-May-03 00:33N 38°02' E 023°36'0 0.0
2016-May-02 23:33N 38°02' E 023°36'0 0.0
2016-May-02 22:33N 38°02' E 023°36'0 0.0
2016-May-02 21:33N 38°02' E 023°36'0 0.0
2016-May-02 20:33N 38°02' E 023°36'0 0.0
2016-May-02 19:34N 38°02' E 023°36'0 0.0
2016-May-02 18:34N 38°02' E 023°36'0 0.0
2016-May-02 17:33N 38°02' E 023°36'0 0.0
2016-May-02 16:33N 38°02' E 023°36'0 0.0
2016-May-02 15:34N 38°02' E 023°36'0 0.0
2016-May-02 14:33N 38°02' E 023°36'0 0.0
2016-May-02 13:33N 38°02' E 023°36'0 0.0
2016-May-02 12:33N 38°02' E 023°36'0 0.0
2016-May-02 11:33N 38°02' E 023°36'0 0.0
2016-May-02 10:33N 38°02' E 023°36'0 0.0
2016-May-02 09:33N 38°02' E 023°36'0 0.0
2016-May-02 08:33N 38°02' E 023°36'0 0.0
2016-May-02 07:33N 38°02' E 023°36'0 0.0
2016-May-02 06:33N 38°02' E 023°36'0 0.0
2016-May-02 05:33N 38°02' E 023°36'0 0.0
2016-May-02 04:33N 38°02' E 023°36'0 0.0
2016-May-02 03:33N 38°02' E 023°36'0 0.0
2016-May-02 02:33N 38°02' E 023°36'0 0.0
2016-May-02 01:33N 38°02' E 023°36'0 0.0
2016-May-02 00:33N 38°02' E 023°36'0 0.0
2016-May-01 23:33N 38°02' E 023°36'0 0.0
2016-May-01 22:33N 38°02' E 023°36'0 0.0
2016-May-01 21:33N 38°02' E 023°36'0 0.0
2016-May-01 20:33N 38°02' E 023°36'0 0.0
2016-May-01 19:33N 38°02' E 023°36'0 0.0
2016-May-01 18:33N 38°02' E 023°36'0 0.0
2016-May-01 17:33N 38°02' E 023°36'0 0.0
2016-May-01 16:33N 38°02' E 023°36'0 0.0
2016-May-01 15:33N 38°02' E 023°36'0 0.0
2016-May-01 14:33N 38°02' E 023°36'0 0.0
2016-May-01 13:33N 38°02' E 023°36'0 0.0
2016-May-01 12:34N 38°02' E 023°36'0 0.0
2016-May-01 11:33N 38°02' E 023°36'0 0.0
2016-May-01 10:33N 38°02' E 023°36'0 0.0
2016-May-01 09:33N 38°02' E 023°36'0 0.0
2016-May-01 08:34N 38°02' E 023°36'0 0.0
2016-May-01 07:33N 38°02' E 023°36'0 0.0
2016-May-01 06:33N 38°02' E 023°36'0 0.0
2016-May-01 05:33N 38°02' E 023°36'0 0.0
2016-May-01 04:33N 38°02' E 023°36'0 0.0
2016-May-01 03:33N 38°02' E 023°36'0 0.0
2016-May-01 02:33N 38°02' E 023°36'0 0.0
2016-May-01 01:33N 38°02' E 023°36'0 0.0
2016-May-01 00:33N 38°02' E 023°36'0 0.0
2016-Apr-30 23:33N 38°02' E 023°36'0 0.0
2016-Apr-30 22:33N 38°02' E 023°36'0 0.0
2016-Apr-30 21:33N 38°02' E 023°36'0 0.0
2016-Apr-30 20:33N 38°02' E 023°36'0 0.0
2016-Apr-30 19:33N 38°02' E 023°36'0 0.0
2016-Apr-30 18:33N 38°02' E 023°36'0 0.0
2016-Apr-30 17:33N 38°02' E 023°36'0 0.0
2016-Apr-30 16:33N 38°02' E 023°36'0 0.0
2016-Apr-30 15:33N 38°02' E 023°36'0 0.0
2016-Apr-30 14:33N 38°02' E 023°36'0 0.0
2016-Apr-30 13:33N 38°02' E 023°36'0 0.0
2016-Apr-30 12:34N 38°02' E 023°36'0 0.0
2016-Apr-30 11:33N 38°02' E 023°36'0 0.0
2016-Apr-30 10:33N 38°02' E 023°36'0 0.0
2016-Apr-30 09:33N 38°02' E 023°36'0 0.0
2016-Apr-30 08:33N 38°02' E 023°36'0 0.0
2016-Apr-30 07:33N 38°02' E 023°36'0 0.0
2016-Apr-30 06:33N 38°02' E 023°36'0 0.0
2016-Apr-30 05:33N 38°02' E 023°36'0 0.0
2016-Apr-30 04:33N 38°02' E 023°36'0 0.0
2016-Apr-30 03:33N 38°02' E 023°36'0 0.0
2016-Apr-30 02:33N 38°02' E 023°36'0 0.0
2016-Apr-30 01:33N 38°02' E 023°36'0 0.0
2016-Apr-30 00:33N 38°02' E 023°36'0 0.0
2016-Apr-29 23:34N 38°02' E 023°36'0 0.0
2016-Apr-29 22:33N 38°02' E 023°36'0 0.0
2016-Apr-29 21:33N 38°02' E 023°36'0 0.0
2016-Apr-29 20:33N 38°02' E 023°36'0 0.0
2016-Apr-29 19:33N 38°02' E 023°36'0 0.0
2016-Apr-29 18:33N 38°02' E 023°36'0 0.0
2016-Apr-29 17:33N 38°02' E 023°36'0 0.0
2016-Apr-29 16:33N 38°02' E 023°36'0 0.0
2016-Apr-29 15:33N 38°02' E 023°36'0 0.0
2016-Apr-29 14:34N 38°02' E 023°36'0 0.0
2016-Apr-29 13:34N 38°02' E 023°36'0 0.0
2016-Apr-29 12:33N 38°02' E 023°36'0 0.0
2016-Apr-29 11:33N 38°02' E 023°36'0 0.0
2016-Apr-29 10:33N 38°02' E 023°36'0 0.0
2016-Apr-29 09:33N 38°02' E 023°36'0 0.0
2016-Apr-29 08:33N 38°02' E 023°36'0 0.0
2016-Apr-29 07:33N 38°02' E 023°36'0 0.0
2016-Apr-29 06:33N 38°02' E 023°36'0 0.0
2016-Apr-29 05:33N 38°02' E 023°36'0 0.0
2016-Apr-29 04:33N 38°02' E 023°36'0 0.0
2016-Apr-29 03:33N 38°02' E 023°36'0 0.0
2016-Apr-29 02:33N 38°02' E 023°36'0 0.0
2016-Apr-29 01:33N 38°02' E 023°36'0 0.0
2016-Apr-29 00:33N 38°02' E 023°36'0 0.0
2016-Apr-28 23:33N 38°02' E 023°36'0 0.0
2016-Apr-28 22:33N 38°02' E 023°36'0 0.0
2016-Apr-28 21:33N 38°02' E 023°36'0 0.0
2016-Apr-28 20:33N 38°02' E 023°36'0 0.0
2016-Apr-28 19:33N 38°02' E 023°36'0 0.0
2016-Apr-28 18:33N 38°02' E 023°36'0 0.0
2016-Apr-28 17:33N 38°02' E 023°36'0 0.0
2016-Apr-28 16:33N 38°02' E 023°36'0 0.0
2016-Apr-28 15:33N 38°02' E 023°36'0 0.0
2016-Apr-28 14:33N 38°02' E 023°36'0 0.0
2016-Apr-28 13:33N 38°02' E 023°36'0 0.0
2016-Apr-28 12:33N 38°02' E 023°36'0 0.0
2016-Apr-28 11:34N 38°02' E 023°36'0 0.0
2016-Apr-28 10:33N 38°02' E 023°36'0 0.0
2016-Apr-28 09:33N 38°02' E 023°36'0 0.0
2016-Apr-28 08:33N 38°02' E 023°36'0 0.0
2016-Apr-28 07:33N 38°02' E 023°36'0 0.0
2016-Apr-28 06:34N 38°02' E 023°36'0 0.0
2016-Apr-28 05:33N 38°02' E 023°36'0 0.0
2016-Apr-28 04:33N 38°02' E 023°36'0 0.0
2016-Apr-28 03:33N 38°02' E 023°36'0 0.0
2016-Apr-28 02:33N 38°02' E 023°36'0 0.0
2016-Apr-28 01:33N 38°02' E 023°36'0 0.0
2016-Apr-28 00:33N 38°02' E 023°36'0 0.0
2016-Apr-27 23:33N 38°02' E 023°36'0 0.0
2016-Apr-27 22:34N 38°02' E 023°36'0 0.0
2016-Apr-27 21:33N 38°02' E 023°36'0 0.0
2016-Apr-27 20:33N 38°02' E 023°36'0 0.0
2016-Apr-27 19:34N 38°02' E 023°36'0 0.0
2016-Apr-27 18:33N 38°02' E 023°36'0 0.0
2016-Apr-27 17:33N 38°02' E 023°36'0 0.0
2016-Apr-27 16:33N 38°02' E 023°36'0 0.0
2016-Apr-27 15:33N 38°02' E 023°36'0 0.0
2016-Apr-27 14:33N 38°02' E 023°36'0 0.0
2016-Apr-27 13:33N 38°02' E 023°36'0 0.0
2016-Apr-27 12:33N 38°02' E 023°36'0 0.0
2016-Apr-27 11:33N 38°02' E 023°36'0 0.0
2016-Apr-27 10:33N 38°02' E 023°36'0 0.0
2016-Apr-27 09:33N 38°02' E 023°36'0 0.0
2016-Apr-27 08:33N 38°02' E 023°36'0 0.0
2016-Apr-27 07:33N 38°02' E 023°36'0 0.0
2016-Apr-27 06:34N 38°02' E 023°36'0 0.0
2016-Apr-27 05:33N 38°02' E 023°36'0 0.0
2016-Apr-27 04:33N 38°02' E 023°36'0 0.0
2016-Apr-27 03:33N 38°02' E 023°36'0 0.0
2016-Apr-27 02:34N 38°02' E 023°36'0 0.0
2016-Apr-27 01:33N 38°02' E 023°36'0 0.0
2016-Apr-27 00:33N 38°02' E 023°36'0 0.0
2016-Apr-26 23:33N 38°02' E 023°36'0 0.0
2016-Apr-26 22:33N 38°02' E 023°36'0 0.0
2016-Apr-26 21:34N 38°02' E 023°36'0 0.0
2016-Apr-26 20:33N 38°02' E 023°36'0 0.0
2016-Apr-26 19:33N 38°02' E 023°36'0 0.0
2016-Apr-26 18:34N 38°02' E 023°36'0 0.0
2016-Apr-26 17:34N 38°02' E 023°36'0 0.0
2016-Apr-26 16:33N 38°02' E 023°36'0 0.0
2016-Apr-26 15:33N 38°02' E 023°36'0 0.0
2016-Apr-26 14:33N 38°02' E 023°36'0 0.0
2016-Apr-26 13:33N 38°02' E 023°36'0 0.0
2016-Apr-26 12:33N 38°02' E 023°36'0 0.0
2016-Apr-26 11:33N 38°02' E 023°36'0 0.0
2016-Apr-26 10:33N 38°02' E 023°36'0 0.0
2016-Apr-26 09:34N 38°02' E 023°36'0 0.0
2016-Apr-26 08:33N 38°02' E 023°36'0 0.0
2016-Apr-26 07:33N 38°02' E 023°36'0 0.0
2016-Apr-26 06:33N 38°02' E 023°36'0 0.0
2016-Apr-26 05:33N 38°02' E 023°36'0 0.0
2016-Apr-26 04:34N 38°02' E 023°36'0 0.0
2016-Apr-26 03:33N 38°02' E 023°36'  

Dump ship's entire track history